Time;durP1;ratioP1;P1;durP2;ratioP2;P2;SDS_P1;SDS_P2;PMS_P1;PMS_P2;Temp;Humidity;BMP_temperature;BMP_pressure;BME280_temperature;BME280_humidity;BME280_pressure;Samples;Min_cycle;Max_cycle;Signal;HPM_P1;HPM_P2
2022/06/18 00:00:00;;;;;;;2.03;1.17;;;;;;;24.49;41.77;98877.41;5031390;28;20068;-78
2022/06/18 00:02:25;;;;;;;1.50;1.17;;;;;;;24.46;42.06;98875.16;5031455;28;20101;-78
2022/06/18 00:04:51;;;;;;;6.97;1.35;;;;;;;24.46;42.02;98882.34;5014875;28;20021;-79
2022/06/18 00:07:20;;;;;;;2.67;1.30;;;;;;;24.37;41.94;98871.88;5031308;28;20473;-79
2022/06/18 00:09:57;;;;;;;4.13;1.40;;;;;;;24.37;42.08;98877.22;4998464;28;20500;-78
2022/06/18 00:15:11;;;;;;;4.70;1.40;;;;;;;24.31;42.32;98866.53;5017795;28;20103;-79
2022/06/18 00:17:36;;;;;;;4.97;1.27;;;;;;;24.31;42.68;98875.34;5041558;28;20593;-78
2022/06/18 00:20:04;;;;;;;3.42;1.20;;;;;;;24.30;42.44;98880.88;5022673;28;20067;-78
2022/06/18 00:22:29;;;;;;;2.42;1.10;;;;;;;24.27;42.38;98871.44;5022857;28;20492;-78
2022/06/18 00:24:55;;;;;;;2.60;1.20;;;;;;;24.30;42.38;98873.69;5024114;28;20029;-79
2022/06/18 00:27:20;;;;;;;2.78;1.30;;;;;;;24.26;42.38;98863.63;5022302;28;20026;-79
2022/06/18 00:29:47;;;;;;;3.40;1.30;;;;;;;24.26;42.54;98860.97;5023213;28;20056;-79
2022/06/18 00:32:12;;;;;;;1.98;1.30;;;;;;;24.26;42.53;98866.31;5009091;28;20056;-80
2022/06/18 00:34:38;;;;;;;3.17;1.25;;;;;;;24.24;42.28;98863.03;5038350;28;20028;-79
2022/06/18 00:37:04;;;;;;;2.38;1.25;;;;;;;24.18;42.33;98859.34;5039702;28;20153;-80
2022/06/18 00:39:30;;;;;;;5.10;1.50;;;;;;;24.19;42.00;98866.28;5030418;28;20018;-78
2022/06/18 00:41:56;;;;;;;1.70;1.05;;;;;;;24.16;41.91;98856.88;5030099;28;20495;-80
2022/06/18 00:44:30;;;;;;;3.42;1.35;;;;;;;24.11;41.75;98853.16;5040233;28;20040;-78
2022/06/18 00:46:59;;;;;;;1.77;1.20;;;;;;;24.10;41.96;98856.84;5020977;28;20092;-79
2022/06/18 00:49:32;;;;;;;2.08;1.23;;;;;;;24.06;41.80;98852.94;5024403;28;20102;-79
2022/06/18 00:52:06;;;;;;;2.90;1.20;;;;;;;24.01;41.94;98843.69;5039382;28;20026;-79
2022/06/18 00:54:34;;;;;;;2.55;1.20;;;;;;;24.01;42.03;98840.22;5019996;28;20021;-79
2022/06/18 00:57:00;;;;;;;;;;;;;;;24.00;42.33;98842.06;5015105;28;20542;-78
2022/06/18 00:59:45;;;;;;;1.92;1.20;;;;;;;23.96;42.47;98835.50;5014246;28;19963;-78
2022/06/18 01:02:17;;;;;;;2.28;1.27;;;;;;;23.96;42.69;98835.50;5015902;28;20124;-78
2022/06/18 01:04:44;;;;;;;8.35;1.73;;;;;;;23.91;42.45;98827.28;5014967;28;20076;-78
2022/06/18 01:07:32;;;;;;;3.47;1.02;;;;;;;23.92;42.44;98828.09;5015204;28;20042;-78
2022/06/18 01:09:59;;;;;;;2.40;1.30;;;;;;;23.91;42.21;98827.28;5014438;28;20037;-78
2022/06/18 01:12:24;;;;;;;2.75;1.45;;;;;;;23.89;42.37;98823.97;5014183;28;20022;-78
2022/06/18 01:14:53;;;;;;;3.28;1.15;;;;;;;23.87;42.04;98814.56;5014691;28;20040;-79
2022/06/18 01:17:18;;;;;;;2.58;1.17;;;;;;;23.82;41.96;98807.13;5014375;28;20038;-79
2022/06/18 01:19:46;;;;;;;3.00;1.20;;;;;;;23.81;42.38;98803.63;4997656;28;20563;-79
2022/06/18 01:22:36;;;;;;;3.85;1.40;;;;;;;23.77;42.32;98801.59;5013979;28;20053;-79
2022/06/18 01:25:05;;;;;;;2.90;1.10;;;;;;;23.76;42.46;98792.75;5031922;28;20022;-79
2022/06/18 01:27:30;;;;;;;3.00;1.20;;;;;;;23.75;42.34;98795.63;5018211;28;20140;-78
2022/06/18 01:29:56;;;;;;;2.95;1.33;;;;;;;23.74;42.53;98796.66;5017654;28;20529;-78
2022/06/18 01:32:22;;;;;;;2.42;1.20;;;;;;;23.73;42.58;98803.00;5034049;28;20120;-79
2022/06/18 01:34:47;;;;;;;2.25;1.20;;;;;;;23.76;42.71;98807.94;5017796;28;20021;-79
2022/06/18 01:37:13;;;;;;;2.75;1.30;;;;;;;23.72;42.76;98807.50;5017574;28;20124;-79
2022/06/18 01:39:41;;;;;;;1.85;1.10;;;;;;;23.72;42.49;98804.00;5017388;28;20040;-80
2022/06/18 01:42:31;;;;;;;6.22;1.27;;;;;;;23.73;42.66;98811.81;5018298;28;20087;-79
2022/06/18 01:45:03;;;;;;;2.20;1.00;;;;;;;23.72;42.60;98812.00;5033389;28;20091;-79
2022/06/18 01:47:38;;;;;;;5.25;1.23;;;;;;;23.73;42.84;98801.16;5017316;28;20045;-79
2022/06/18 01:50:12;;;;;;;4.53;1.42;;;;;;;23.72;42.75;98807.50;5033997;28;20051;-79
2022/06/18 01:52:40;;;;;;;2.90;1.27;;;;;;;23.72;43.06;98810.19;5035124;28;20025;-79
2022/06/18 01:55:21;;;;;;;3.00;1.35;;;;;;;23.72;42.83;98802.19;5001352;28;20030;-80
2022/06/18 01:57:49;;;;;;;2.97;1.42;;;;;;;23.72;42.91;98804.00;5018532;28;20061;-79
2022/06/18 02:00:20;;;;;;;3.33;1.40;;;;;;;23.71;42.63;98800.53;5017278;28;20034;-80
2022/06/18 02:02:45;;;;;;;3.58;1.50;;;;;;;23.70;42.73;98803.41;5017601;28;20476;-79
2022/06/18 02:05:12;;;;;;;2.65;1.40;;;;;;;23.70;42.83;98798.06;5017113;28;20026;-79
2022/06/18 02:07:37;;;;;;;2.15;1.40;;;;;;;23.71;42.76;98805.88;5000921;28;20199;-80
2022/06/18 02:10:08;;;;;;;3.30;1.60;;;;;;;23.73;43.04;98809.13;5000589;28;20025;-79
2022/06/18 02:12:37;;;;;;;3.47;1.40;;;;;;;23.72;43.21;98806.69;5017615;28;20029;-79
2022/06/18 02:15:03;;;;;;;;;;;;;;;23.72;43.16;98804.00;5017511;28;20064;-80
2022/06/18 02:17:29;;;;;;;3.08;1.40;;;;;;;23.70;43.65;98803.41;5017094;28;19909;-79
2022/06/18 02:20:04;;;;;;;6.50;1.63;;;;;;;23.71;43.56;98795.19;5000199;28;20036;-75
2022/06/18 02:22:40;;;;;;;2.92;1.48;;;;;;;23.72;43.32;98786.19;5033166;28;20057;-80
2022/06/18 02:25:06;;;;;;;4.05;1.63;;;;;;;23.72;43.74;98790.69;5017387;28;20040;-79
2022/06/18 02:27:32;;;;;;;3.88;1.42;;;;;;;23.74;43.70;98789.47;5016667;28;20032;-79
2022/06/18 02:29:58;;;;;;;3.72;1.80;;;;;;;23.74;43.64;98791.31;5016951;28;20025;-79
2022/06/18 02:32:26;;;;;;;3.70;1.50;;;;;;;23.71;43.52;98787.22;5000142;28;20029;-79
2022/06/18 02:34:52;;;;;;;6.32;1.50;;;;;;;23.76;43.74;98802.59;5016571;28;20045;-79
2022/06/18 02:37:23;;;;;;;7.65;1.65;;;;;;;23.73;43.73;98803.81;5031629;28;20030;-79
2022/06/18 02:39:59;;;;;;;2.63;1.80;;;;;;;23.76;43.91;98807.94;5016486;28;20112;-80
2022/06/18 02:42:26;;;;;;;3.50;1.70;;;;;;;23.76;43.99;98813.25;5016893;28;20028;-80
2022/06/18 02:44:51;;;;;;;2.90;1.73;;;;;;;23.74;44.10;98813.47;4999615;28;20052;-79
2022/06/18 02:47:17;;;;;;;2.70;1.70;;;;;;;23.77;44.09;98820.25;5032355;28;20045;-79
2022/06/18 02:49:46;;;;;;;2.67;1.80;;;;;;;23.76;44.29;98819.41;5000556;28;20127;-80
2022/06/18 02:52:11;;;;;;;5.65;1.63;;;;;;;23.79;44.24;98824.34;5000062;28;20049;-80
2022/06/18 02:54:37;;;;;;;6.72;2.28;;;;;;;23.80;44.50;98830.50;4999778;28;20029;-80
2022/06/18 02:57:05;;;;;;;2.45;1.90;;;;;;;23.76;44.43;98830.06;5032560;28;20504;-80
2022/06/18 02:59:30;;;;;;;4.65;2.08;;;;;;;23.81;44.71;98842.78;4999881;28;20033;-79
2022/06/18 03:01:56;;;;;;;4.13;2.00;;;;;;;23.80;44.68;98833.97;5015986;28;20461;-80
2022/06/18 03:04:21;;;;;;;3.58;2.25;;;;;;;23.76;44.93;98830.06;4999523;28;20052;-79
2022/06/18 03:06:47;;;;;;;4.00;2.00;;;;;;;23.79;45.02;98831.50;5032027;28;20048;-79
2022/06/18 03:09:12;;;;;;;3.17;2.30;;;;;;;23.81;44.99;98832.13;5031674;28;20500;-79
2022/06/18 03:14:22;;;;;;;5.80;2.25;;;;;;;23.81;45.34;98832.13;5032393;28;20091;-79
2022/06/18 03:16:47;;;;;;;4.72;2.20;;;;;;;23.85;45.27;98833.41;5015773;28;20522;-79
2022/06/18 03:19:38;;;;;;;3.15;2.47;;;;;;;23.88;45.38;98843.69;5031900;28;20026;-78
2022/06/18 03:22:12;;;;;;;7.65;2.40;;;;;;;23.91;45.12;98837.09;5031693;28;20491;-79
2022/06/18 03:24:40;;;;;;;3.97;2.60;;;;;;;23.89;45.52;98834.63;5016082;28;20040;-79
2022/06/18 03:27:06;;;;;;;2.92;2.20;;;;;;;23.89;45.47;98839.16;5015690;28;20033;-79
2022/06/18 03:29:31;;;;;;;3.13;2.22;;;;;;;23.89;45.45;98839.97;5015426;28;20366;-79
2022/06/18 03:31:57;;;;;;;3.22;2.28;;;;;;;23.90;45.53;98838.97;5031842;28;20040;-79
2022/06/18 03:34:22;;;;;;;3.55;2.40;;;;;;;23.89;45.61;98837.31;4998988;28;20033;-79
2022/06/18 03:36:48;;;;;;;4.30;2.40;;;;;;;23.91;45.73;98845.94;5015173;28;20068;-80
2022/06/18 03:39:13;;;;;;;5.85;2.50;;;;;;;23.90;45.63;98835.47;5015394;28;20025;-79
2022/06/18 03:41:39;;;;;;;3.97;2.47;;;;;;;23.96;45.84;98845.34;4998997;28;20417;-79
2022/06/18 03:44:04;;;;;;;7.13;2.63;;;;;;;23.98;45.49;98846.75;5015338;28;20049;-80
2022/06/18 03:46:30;;;;;;;5.60;2.53;;;;;;;23.96;45.49;98843.50;5031592;28;20045;-80
2022/06/18 03:49:03;;;;;;;4.07;2.78;;;;;;;24.03;45.67;98843.50;4998755;28;20033;-80
2022/06/18 03:51:29;;;;;;;3.13;2.70;;;;;;;24.04;45.72;98842.47;4998781;28;20033;-77
2022/06/18 03:53:54;;;;;;;4.32;2.75;;;;;;;24.04;45.68;98845.16;5015217;28;20034;-80
2022/06/18 03:56:21;;;;;;;5.30;2.58;;;;;;;24.05;45.59;98846.78;4998457;28;20037;-78
2022/06/18 03:58:48;;;;;;;3.55;2.72;;;;;;;24.07;45.52;98846.56;5015062;28;20029;-73
2022/06/18 04:01:16;;;;;;;3.20;2.65;;;;;;;24.07;45.85;98846.56;4998751;28;20033;-73
2022/06/18 04:03:41;;;;;;;52.88;3.75;;;;;;;24.14;47.06;98844.75;5031622;28;20026;-72
2022/06/18 04:06:09;;;;;;;20.10;2.83;;;;;;;24.13;47.34;98835.94;5033538;28;20111;-72
2022/06/18 04:08:35;;;;;;;14.05;2.78;;;;;;;24.30;46.36;98847.03;5014961;28;20017;-70
2022/06/18 04:11:00;;;;;;;14.82;2.78;;;;;;;24.37;46.47;98841.72;5032346;28;20044;-77
2022/06/18 04:13:28;;;;;;;24.25;3.70;;;;;;;24.37;46.56;98842.53;5031660;28;20033;-76
2022/06/18 04:15:54;;;;;;;30.08;3.42;;;;;;;24.44;46.56;98853.19;5014617;28;20567;-74
2022/06/18 04:18:20;;;;;;;10.70;3.17;;;;;;;24.47;46.50;98841.31;5031065;28;20116;-74
2022/06/18 04:20:45;;;;;;;12.98;3.97;;;;;;;24.42;46.78;98835.78;5014628;28;20091;-73
2022/06/18 04:23:11;;;;;;;11.02;3.20;;;;;;;24.45;46.72;98835.34;5032207;28;20053;-76
2022/06/18 04:25:38;;;;;;;21.45;3.65;;;;;;;24.45;46.58;98827.34;5014781;28;20032;-75
2022/06/18 04:28:03;;;;;;;24.58;3.42;;;;;;;24.52;46.69;98833.50;5030620;28;20464;-74
2022/06/18 04:30:30;;;;;;;9.10;3.50;;;;;;;24.58;46.34;98843.41;5030471;28;20033;-75
2022/06/18 04:32:56;;;;;;;9.07;3.40;;;;;;;24.61;46.55;98848.31;5014490;28;20029;-75
2022/06/18 04:35:21;;;;;;;6.68;3.17;;;;;;;24.62;46.58;98849.97;5014168;28;20045;-72
2022/06/18 04:37:48;;;;;;;6.90;3.35;;;;;;;24.55;46.36;98852.59;5030653;28;20620;-72
2022/06/18 04:40:19;;;;;;;5.05;3.20;;;;;;;24.43;46.74;98859.59;5030963;28;20083;-69
2022/06/18 04:42:44;;;;;;;8.50;3.35;;;;;;;24.37;47.15;98857.72;5015014;28;20473;-71
2022/06/18 04:45:10;;;;;;;11.57;3.67;;;;;;;24.24;47.32;98857.69;5016919;28;20037;-71
2022/06/18 04:47:35;;;;;;;8.65;3.53;;;;;;;24.16;47.28;98864.03;5030509;28;20116;-71
2022/06/18 04:50:02;;;;;;;9.20;3.63;;;;;;;24.11;47.48;98866.50;5028524;28;20514;-71
2022/06/18 04:52:27;;;;;;;7.80;3.40;;;;;;;24.06;47.65;98868.94;5028317;28;20033;-71
2022/06/18 04:54:53;;;;;;;5.03;3.40;;;;;;;24.05;47.59;98876.09;5028523;28;20032;-72
2022/06/18 04:57:20;;;;;;;5.75;3.33;;;;;;;23.98;47.70;98861.94;5012275;28;20033;-72
2022/06/18 04:59:46;;;;;;;7.78;3.40;;;;;;;24.00;47.67;98867.91;5012591;28;20128;-71
2022/06/18 05:02:23;;;;;;;5.88;3.08;;;;;;;23.95;47.98;98863.16;5032116;28;20116;-72
2022/06/18 05:04:49;;;;;;;6.00;3.15;;;;;;;23.95;47.81;98868.50;5016612;28;20467;-70
2022/06/18 05:07:14;;;;;;;6.97;3.20;;;;;;;23.94;47.84;98871.34;5034442;28;20072;-70
2022/06/18 05:09:40;;;;;;;7.45;3.50;;;;;;;23.92;47.92;98881.41;5035615;28;20025;-70
2022/06/18 05:12:06;;;;;;;5.30;3.20;;;;;;;23.90;48.07;98873.59;5034387;28;20034;-69
2022/06/18 05:14:31;;;;;;;8.32;3.13;;;;;;;23.89;47.99;98877.28;5035750;28;20024;-70
2022/06/18 05:16:58;;;;;;;6.15;3.17;;;;;;;23.88;48.42;98880.16;5035316;28;20112;-70
2022/06/18 05:19:25;;;;;;;8.30;3.38;;;;;;;23.86;48.23;98887.53;5034074;28;20027;-70
2022/06/18 05:21:50;;;;;;;3.65;2.95;;;;;;;23.85;48.39;98884.06;5033578;28;20091;-70
2022/06/18 05:24:16;;;;;;;5.07;3.10;;;;;;;23.84;48.47;98882.41;5035388;28;20033;-71
2022/06/18 05:26:43;;;;;;;5.72;3.47;;;;;;;23.81;48.40;98883.59;5034106;28;20493;-71
2022/06/18 05:29:10;;;;;;;5.95;3.20;;;;;;;23.77;48.63;98886.88;5017614;28;20397;-69
2022/06/18 05:31:35;;;;;;;8.02;3.25;;;;;;;23.79;48.72;98885.63;5017729;28;20041;-71
2022/06/18 05:34:01;;;;;;;5.15;3.13;;;;;;;23.80;48.68;98900.63;5034251;28;20025;-70
2022/06/18 05:36:27;;;;;;;6.57;3.50;;;;;;;23.81;48.49;98893.44;5033808;28;20049;-71
2022/06/18 05:38:53;;;;;;;5.35;3.25;;;;;;;23.83;48.60;98894.03;5034972;28;20037;-71
2022/06/18 05:41:18;;;;;;;6.25;3.20;;;;;;;23.80;48.60;98894.47;5033802;28;20033;-70
2022/06/18 05:43:44;;;;;;;4.97;3.00;;;;;;;23.82;48.93;98897.75;5033710;28;20044;-71
2022/06/18 05:46:12;;;;;;;4.78;3.20;;;;;;;23.81;48.90;98909.41;5033704;28;20049;-71
2022/06/18 05:48:38;;;;;;;4.70;3.15;;;;;;;23.84;48.62;98911.72;5033877;28;20025;-71
2022/06/18 05:51:05;;;;;;;3.72;3.08;;;;;;;23.83;48.81;98913.56;5033093;28;20577;-72
2022/06/18 05:53:30;;;;;;;5.70;3.47;;;;;;;23.82;48.69;98913.75;5033704;28;20025;-72
2022/06/18 05:55:56;;;;;;;8.38;3.05;;;;;;;23.86;48.83;98917.66;5033544;28;20454;-72
2022/06/18 05:58:22;;;;;;;5.50;3.17;;;;;;;23.87;49.06;98923.84;5017278;28;20030;-72
2022/06/18 06:00:47;;;;;;;4.97;3.50;;;;;;;23.88;49.01;98928.97;5033742;28;20037;-72
2022/06/18 06:03:13;;;;;;;5.07;3.00;;;;;;;23.90;49.00;98923.44;5033449;28;20591;-72
2022/06/18 06:05:38;;;;;;;5.47;3.05;;;;;;;23.90;48.79;98920.78;5034810;28;20527;-72
2022/06/18 06:08:04;;;;;;;4.60;3.20;;;;;;;23.91;48.83;98925.06;5033689;28;20083;-72
2022/06/18 06:13:18;;;;;;;5.38;3.35;;;;;;;23.94;48.72;98928.19;5033617;28;20040;-71
2022/06/18 06:15:43;;;;;;;4.03;3.17;;;;;;;23.96;48.70;98923.47;5033198;28;20030;-72
2022/06/18 06:18:13;;;;;;;4.78;3.20;;;;;;;23.95;48.46;98932.47;5016621;28;20100;-72
2022/06/18 06:20:41;;;;;;;4.75;3.22;;;;;;;23.97;48.63;98927.78;5033220;28;20420;-72
2022/06/18 06:23:07;;;;;;;6.95;3.20;;;;;;;23.99;48.50;98930.25;5016774;28;20411;-73
2022/06/18 06:25:33;;;;;;;5.55;3.10;;;;;;;24.00;48.37;98932.72;5032873;28;20103;-71
2022/06/18 06:27:58;;;;;;;3.95;3.17;;;;;;;24.02;48.30;98928.00;5034066;28;20033;-70
2022/06/18 06:30:24;;;;;;;4.53;3.35;;;;;;;24.05;48.16;98928.63;5034199;28;20026;-72
2022/06/18 06:32:49;;;;;;;4.22;3.10;;;;;;;24.07;48.09;98924.75;5032941;28;20500;-72
2022/06/18 06:35:15;;;;;;;3.95;3.17;;;;;;;24.09;48.26;98921.88;5033758;28;20037;-71
2022/06/18 06:37:40;;;;;;;5.05;3.08;;;;;;;24.10;48.22;98920.84;5032852;28;20069;-71
2022/06/18 06:40:06;;;;;;;4.40;3.20;;;;;;;24.10;48.20;98911.00;5016287;28;20117;-71
2022/06/18 06:42:58;;;;;;;4.60;3.33;;;;;;;24.13;48.04;98907.94;5016750;28;20455;-70
2022/06/18 06:45:26;;;;;;;5.05;3.33;;;;;;;24.15;47.99;98913.06;5031436;28;20045;-72
2022/06/18 06:47:52;;;;;;;3.60;3.25;;;;;;;24.17;47.78;98911.03;5016244;28;20037;-70
2022/06/18 06:50:18;;;;;;;5.00;3.08;;;;;;;24.17;47.88;98917.16;5033942;28;20052;-70
2022/06/18 06:52:43;;;;;;;5.18;3.10;;;;;;;24.24;47.78;98927.03;5015921;28;20080;-70
2022/06/18 06:57:59;;;;;;;5.30;3.00;;;;;;;24.31;47.45;98926.03;5032575;28;20036;-70
2022/06/18 07:00:25;;;;;;;3.60;3.00;;;;;;;24.32;47.55;98925.03;5032354;28;20021;-70
2022/06/18 07:02:50;;;;;;;3.45;3.10;;;;;;;24.38;47.18;98924.22;5032391;28;20386;-70
2022/06/18 07:05:16;;;;;;;5.10;3.03;;;;;;;24.42;46.91;98921.16;5015842;28;20507;-71
2022/06/18 07:07:41;;;;;;;7.22;3.03;;;;;;;24.42;46.92;98919.28;5032236;28;20412;-72
2022/06/18 07:10:08;;;;;;;4.47;2.92;;;;;;;24.53;46.71;98931.22;5032298;28;20056;-71
2022/06/18 07:12:35;;;;;;;4.72;3.10;;;;;;;24.57;46.30;98916.47;5032172;28;20048;-70
2022/06/18 07:15:00;;;;;;;4.32;3.10;;;;;;;24.76;45.99;98925.50;5015392;28;20121;-71
2022/06/18 07:17:28;;;;;;;3.47;3.13;;;;;;;25.00;45.49;98929.44;5033233;28;20108;-71
2022/06/18 07:19:53;;;;;;;5.40;3.28;;;;;;;25.18;44.78;98939.47;5033139;28;20381;-72
2022/06/18 07:22:19;;;;;;;4.60;3.20;;;;;;;25.51;44.29;98935.13;5030952;28;20056;-72
2022/06/18 07:24:44;;;;;;;7.00;5.75;;;;;;;25.66;44.03;98945.59;5015312;28;20432;-71
2022/06/18 07:27:10;;;;;;;6.93;4.47;;;;;;;25.74;43.81;98940.81;5015094;28;20049;-72
2022/06/18 07:29:35;;;;;;;6.20;3.85;;;;;;;25.93;43.31;98954.34;5032925;28;20471;-71
2022/06/18 07:32:11;;;;;;;6.18;4.45;;;;;;;26.16;43.00;98954.69;5032922;28;20040;-71
2022/06/18 07:34:37;;;;;;;4.03;3.30;;;;;;;26.56;42.28;98958.19;5015281;28;20034;-71
2022/06/18 07:37:02;;;;;;;5.22;3.47;;;;;;;26.91;41.21;98963.94;5031746;28;20119;-71
2022/06/18 07:39:28;;;;;;;4.47;3.40;;;;;;;27.10;40.79;98978.19;5031575;28;20025;-71
2022/06/18 07:41:53;;;;;;;5.10;3.65;;;;;;;27.18;40.69;98975.25;5032827;28;20033;-73
2022/06/18 07:44:19;;;;;;;7.80;4.88;;;;;;;27.44;39.51;98965.38;4998835;28;20037;-73
2022/06/18 07:46:47;;;;;;;5.47;3.60;;;;;;;27.62;39.18;98970.72;5033021;28;20041;-74
2022/06/18 07:49:16;;;;;;;3.90;3.03;;;;;;;27.70;38.52;98980.34;5031650;28;20395;-74
2022/06/18 07:51:41;;;;;;;4.00;3.08;;;;;;;27.69;38.67;98981.41;5015396;28;20041;-72
2022/06/18 07:54:07;;;;;;;5.05;3.95;;;;;;;27.73;38.22;98982.59;5031460;28;20582;-71
2022/06/18 07:56:32;;;;;;;4.35;3.50;;;;;;;27.74;37.95;98986.91;5014845;28;20045;-71
2022/06/18 07:58:58;;;;;;;3.47;2.80;;;;;;;27.79;38.46;98986.25;5031143;28;20045;-71
2022/06/18 08:01:24;;;;;;;3.88;3.20;;;;;;;27.88;38.16;98986.75;5015184;28;20124;-71
2022/06/18 08:03:49;;;;;;;3.45;2.70;;;;;;;27.91;38.68;98997.03;5031499;28;20061;-70
2022/06/18 08:06:15;;;;;;;4.93;2.88;;;;;;;27.96;38.54;98997.25;5031360;28;20030;-72
2022/06/18 08:08:40;;;;;;;3.88;2.78;;;;;;;27.99;38.28;99002.16;5031369;28;20033;-71
2022/06/18 08:11:10;;;;;;;5.28;3.28;;;;;;;27.98;38.18;99004.00;5031191;28;20080;-70
2022/06/18 08:13:35;;;;;;;3.65;2.67;;;;;;;28.01;38.32;99001.94;5015065;28;20037;-71
2022/06/18 08:16:01;;;;;;;4.13;2.50;;;;;;;28.03;38.15;99010.56;5031113;28;20059;-70
2022/06/18 08:18:26;;;;;;;4.65;2.75;;;;;;;28.06;37.92;99010.13;5031423;28;20052;-71
2022/06/18 08:20:52;;;;;;;3.78;2.35;;;;;;;28.18;37.64;99004.81;5014721;28;20119;-70
2022/06/18 08:23:17;;;;;;;5.47;2.75;;;;;;;28.26;37.56;99007.19;5014631;28;20072;-70
2022/06/18 08:25:43;;;;;;;3.53;2.75;;;;;;;28.35;37.29;99003.13;5030976;28;20558;-72
2022/06/18 08:28:09;;;;;;;3.25;2.47;;;;;;;28.55;36.95;98999.38;5014501;28;20030;-71
2022/06/18 08:30:34;;;;;;;3.38;2.63;;;;;;;28.71;36.48;98997.94;5014999;28;20033;-71
2022/06/18 08:33:00;;;;;;;3.53;2.30;;;;;;;28.90;36.11;98998.69;5014759;28;20036;-71
2022/06/18 08:35:25;;;;;;;4.22;2.60;;;;;;;29.25;35.07;99006.03;5016680;28;20033;-70
2022/06/18 08:37:51;;;;;;;3.25;2.28;;;;;;;29.47;34.84;99011.66;5035016;28;20033;-71
2022/06/18 08:40:49;;;;;;;2.75;2.20;;;;;;;30.06;33.63;99007.06;5036022;28;20034;-74
2022/06/18 08:43:32;;;;;;;2.83;2.20;;;;;;;30.54;33.05;99009.63;5036522;28;20392;-72
2022/06/18 08:46:06;;;;;;;5.55;2.00;;;;;;;31.11;31.75;99016.81;5036518;28;20030;-71
2022/06/18 08:48:57;;;;;;;3.20;2.00;;;;;;;31.45;30.99;99020.28;5034888;28;20033;-72
2022/06/18 08:51:26;;;;;;;3.17;1.85;;;;;;;31.72;30.72;99003.44;5034802;28;20078;-72
2022/06/18 08:54:06;;;;;;;3.75;2.10;;;;;;;31.66;30.33;98997.19;5018301;28;20051;-71
2022/06/18 08:56:32;;;;;;;3.65;2.05;;;;;;;32.09;30.30;99000.19;5035934;28;20067;-72
2022/06/18 08:59:18;;;;;;;5.05;2.00;;;;;;;32.41;29.56;98999.44;5035788;28;20061;-71
2022/06/18 09:02:10;;;;;;;3.97;2.00;;;;;;;32.60;29.15;98989.91;5036048;28;20029;-71
2022/06/18 09:04:53;;;;;;;3.83;1.90;;;;;;;32.43;29.32;98992.72;5030922;28;20347;-71
2022/06/18 09:07:47;;;;;;;5.03;1.80;;;;;;;32.53;29.11;99002.81;5019907;28;20398;-72
2022/06/18 09:10:16;;;;;;;3.42;1.73;;;;;;;32.61;28.99;98996.16;5018824;28;20037;-72
2022/06/18 09:12:44;;;;;;;2.80;1.73;;;;;;;32.65;28.90;98997.28;5034814;28;20029;-71
2022/06/18 09:15:19;;;;;;;3.65;1.75;;;;;;;32.47;29.10;98999.25;5018143;28;20049;-71
2022/06/18 09:17:48;;;;;;;3.95;2.00;;;;;;;32.50;29.26;98997.09;5017853;28;20030;-72
2022/06/18 09:20:30;;;;;;;5.03;1.75;;;;;;;32.37;29.65;98992.91;5018061;28;20025;-72
2022/06/18 09:22:58;;;;;;;2.40;1.60;;;;;;;32.60;29.21;98989.09;5034419;28;20496;-73
2022/06/18 09:25:30;;;;;;;2.17;1.52;;;;;;;32.42;29.75;98996.50;5034133;28;20036;-71
2022/06/18 09:27:57;;;;;;;2.67;1.80;;;;;;;32.60;29.26;98986.41;5001153;28;20041;-72
2022/06/18 09:30:33;;;;;;;2.38;1.55;;;;;;;32.60;29.18;98983.69;5033949;28;20025;-73
2022/06/18 09:33:05;;;;;;;5.72;1.58;;;;;;;32.46;29.59;98981.38;5034386;28;20036;-73
2022/06/18 09:35:30;;;;;;;3.50;1.80;;;;;;;32.37;29.85;98985.63;5017353;28;20036;-71
2022/06/18 09:38:19;;;;;;;5.18;1.63;;;;;;;32.36;29.71;98981.28;5035008;28;20539;-71
2022/06/18 09:40:59;;;;;;;2.00;1.77;;;;;;;32.37;30.04;98976.69;5035004;28;20029;-72
2022/06/18 09:43:30;;;;;;;3.15;2.00;;;;;;;32.41;29.63;98986.75;5018811;28;20033;-72
2022/06/18 09:45:58;;;;;;;2.30;1.58;;;;;;;32.54;29.70;98982.81;5033562;28;20064;-72
2022/06/18 09:48:24;;;;;;;4.97;1.92;;;;;;;32.67;29.19;98983.50;5000889;28;20121;-71
2022/06/18 09:51:02;;;;;;;2.33;1.58;;;;;;;32.73;29.19;98986.00;5017194;28;20483;-70
2022/06/18 09:53:34;;;;;;;3.00;1.50;;;;;;;32.84;29.09;98986.91;5017644;28;20486;-70
2022/06/18 09:56:07;;;;;;;3.60;1.40;;;;;;;32.88;28.61;98996.16;5017109;28;20048;-71
2022/06/18 09:58:40;;;;;;;1.95;1.60;;;;;;;32.68;28.97;99001.38;5017679;28;20484;-70
2022/06/18 10:01:06;;;;;;;2.60;1.30;;;;;;;32.49;29.20;99007.09;5001096;28;20033;-71
2022/06/18 10:09:04;;;;;;;4.13;1.58;;;;;;;31.99;29.89;99008.09;5033889;28;20143;-70
2022/06/18 10:11:29;;;;;;;2.20;1.45;;;;;;;31.85;30.01;99011.19;5016962;28;20556;-71
2022/06/18 10:13:59;;;;;;;4.07;1.60;;;;;;;31.71;30.43;99002.63;5033603;28;20041;-71
2022/06/18 10:16:57;;;;;;;1.80;1.60;;;;;;;31.64;30.95;99001.97;5017210;28;20049;-71
2022/06/18 10:20:08;;;;;;;2.20;1.60;;;;;;;31.53;31.59;99013.69;5033648;28;20060;-71
2022/06/18 10:22:57;;;;;;;2.83;1.60;;;;;;;31.42;31.57;99020.78;5015433;28;20107;-72
2022/06/18 10:25:41;;;;;;;3.85;1.60;;;;;;;31.28;31.75;99020.34;5032137;28;20167;-72
2022/06/18 10:28:19;;;;;;;2.00;1.38;;;;;;;31.14;32.01;99017.13;5015498;28;20037;-71
2022/06/18 10:30:56;;;;;;;2.90;1.50;;;;;;;31.03;32.14;99013.44;5032095;28;20053;-72
2022/06/18 10:33:41;;;;;;;3.50;1.65;;;;;;;30.91;32.32;99014.56;5015579;28;20416;-71
2022/06/18 10:36:19;;;;;;;4.30;1.55;;;;;;;30.82;32.94;99011.44;5015167;28;20599;-72
2022/06/18 10:39:12;;;;;;;2.40;1.70;;;;;;;30.69;32.63;99009.88;5015286;28;20504;-71
2022/06/18 10:42:05;;;;;;;5.57;1.70;;;;;;;30.63;32.65;99013.53;5032168;28;20116;-72
2022/06/18 10:44:40;;;;;;;2.30;1.42;;;;;;;30.58;33.31;99013.44;5031764;28;20113;-71
2022/06/18 10:47:18;;;;;;;1.77;1.60;;;;;;;30.49;33.42;99024.59;5031750;28;20041;-71
2022/06/18 10:49:46;;;;;;;2.15;1.50;;;;;;;30.45;33.62;99023.44;4999168;28;20599;-73
2022/06/18 10:52:25;;;;;;;3.58;1.70;;;;;;;30.43;33.83;99024.75;4998954;28;20071;-72
2022/06/18 10:55:03;;;;;;;4.38;1.67;;;;;;;30.42;33.70;99021.22;4999125;28;20128;-72
2022/06/18 10:57:29;;;;;;;3.20;1.75;;;;;;;30.44;33.53;99029.91;5031514;28;20121;-72
2022/06/18 10:59:54;;;;;;;3.15;1.60;;;;;;;30.47;33.46;99018.66;5015703;28;20045;-72
2022/06/18 11:02:33;;;;;;;1.92;1.50;;;;;;;30.45;32.92;99017.25;5015789;28;20495;-72
2022/06/18 11:05:26;;;;;;;1.92;1.50;;;;;;;30.47;32.82;99015.97;5016363;28;20065;-71
2022/06/18 11:07:52;;;;;;;2.65;1.63;;;;;;;30.52;33.00;99000.94;5031236;28;20043;-70
2022/06/18 11:10:41;;;;;;;2.80;1.48;;;;;;;30.55;32.67;99005.84;5015878;28;20033;-71
2022/06/18 11:13:21;;;;;;;2.97;1.52;;;;;;;30.60;32.71;99005.94;5032589;28;20475;-71
2022/06/18 11:15:46;;;;;;;3.10;1.50;;;;;;;30.61;32.52;98999.50;5015750;28;20025;-72
2022/06/18 11:18:21;;;;;;;4.93;1.58;;;;;;;30.70;32.33;98994.53;5033159;28;20385;-74
2022/06/18 11:21:04;;;;;;;5.65;1.67;;;;;;;30.85;32.32;99009.09;5031777;28;20086;-70
2022/06/18 11:23:31;;;;;;;1.80;1.35;;;;;;;30.85;31.77;98997.47;5033334;28;20523;-71
2022/06/18 11:25:57;;;;;;;1.92;1.20;;;;;;;30.83;31.34;98991.53;5032136;28;20545;-71
2022/06/18 11:28:28;;;;;;;1.98;1.40;;;;;;;30.88;30.77;99004.25;5015601;28;20025;-71
2022/06/18 11:30:54;;;;;;;3.30;1.38;;;;;;;30.76;31.03;98994.38;5015363;28;20034;-71
2022/06/18 11:33:25;;;;;;;5.07;1.40;;;;;;;30.78;31.58;98994.13;4999228;28;20124;-72
2022/06/18 11:35:51;;;;;;;1.58;1.27;;;;;;;30.80;31.80;98992.00;5033336;28;20097;-72
2022/06/18 11:38:31;;;;;;;3.70;1.48;;;;;;;30.80;32.01;98986.63;5015285;28;20045;-71
2022/06/18 11:40:59;;;;;;;4.07;1.63;;;;;;;30.83;31.73;98986.13;5015530;28;20025;-72
2022/06/18 11:43:43;;;;;;;2.83;1.40;;;;;;;30.86;31.81;98996.44;5031542;28;20039;-71
2022/06/18 11:46:12;;;;;;;3.67;1.63;;;;;;;30.91;31.86;98984.91;5032730;28;20029;-71
2022/06/18 11:48:57;;;;;;;1.98;1.20;;;;;;;30.89;31.54;98995.94;5015350;28;20036;-71
2022/06/18 11:51:44;;;;;;;2.28;1.45;;;;;;;31.05;31.69;98990.84;5014914;28;20100;-69
2022/06/18 11:54:17;;;;;;;1.58;1.30;;;;;;;30.98;30.35;99002.59;5031336;28;20091;-70
2022/06/18 11:57:05;;;;;;;2.85;1.40;;;;;;;30.97;30.73;98997.44;5031482;28;20032;-71
2022/06/18 12:00:05;;;;;;;3.03;1.40;;;;;;;31.01;31.13;99004.81;5014653;28;20061;-70
2022/06/18 12:02:36;;;;;;;2.78;1.50;;;;;;;31.03;32.11;99001.88;5014564;28;20029;-70